• Join FlightAware (Why Join?)
  • Login
  • US Flag 
09:15AM EST


 

Airport Tracker/Info


-or-


 

Live Flight TrackerFlight Track Log ✈ SWA230 ✈ 03-Oct-2013 ✈ KLAS - KMDW

Flight Track Log - Related Links

Times and Time Zones

All times are in EDT time to prevent confusion due to time zone crossing. See the SWA230 flight status page for this flight to view local times or setup timezone preferences in your user account.

Time Position Orientation Groundspeed Altitude Reporting Facility
EDT Latitude Longitude Course Direction KTS MPH feet Rate Location/Type
10:23PM 36.1339 -115.0667 69° East 251 289 5,800  Level Los Angeles Center
10:24PM 36.1353 -115.0567 80° East 243 280 5,900 2,580 Climbing Los Angeles Center
10:25PM 36.1453 -114.9578 83° East 279 321 8,900 2,820 Climbing Los Angeles Center
10:26PM 36.1544 -114.8497 84° East 305 351 11,800 2,580 Climbing Los Angeles Center
10:27PM 36.1806 -114.7303 75° East 352 405 14,300 2,220 Climbing Los Angeles Center
10:28PM 36.1922 -114.5897 84° East 399 459 16,400 2,220 Climbing Los Angeles Center
10:29PM 36.1889 -114.4339 91° East 440 506 18,900 2,880 Climbing Los Angeles Center
10:30PM 36.1925 -114.2383 89° East 468 539 22,400 2,820 Climbing Los Angeles Center
10:31PM 36.2142 -114.0733 81° East 484 557 24,700 2,760 Climbing Los Angeles Center
10:32PM 36.2328 -113.9061 82° East 490 564 28,100 2,460 Climbing Los Angeles Center
10:33PM 36.2514 -113.7447 82° East 480 552 29,800 1,500 Climbing Los Angeles Center
10:34PM 36.2714 -113.5775 82° East 486 559 31,200 1,260 Climbing Los Angeles Center
10:35PM 36.2917 -113.4022 82° East 505 581 32,500 1,560 Climbing Los Angeles Center
10:36PM 36.3175 -113.2136 80° East 516 594 34,400 1,620 Climbing Los Angeles Center
10:37PM 36.3739 -113.0564 66° East 503 579 35,900 1,200 Climbing Los Angeles Center
10:38PM 36.4328 -112.9014 65° Northeast 499 574 37,000 480 Climbing Los Angeles Center
10:39PM 36.4894 -112.7464 66° East 497 572 37,000  Level Los Angeles Center
10:40PM 36.5572 -112.5606 66° East 495 570 37,000  Level Los Angeles Center
10:41PM 36.6139 -112.4067 65° Northeast 493 567 37,000  Level Los Angeles Center
10:42PM 36.6692 -112.2533 66° East 490 564 37,000  Level Los Angeles Center
10:43PM 36.7264 -112.0981 65° Northeast 494 568 37,000  Level Los Angeles Center
10:44PM 36.7828 -111.9419 66° East 496 571 37,000  Level Los Angeles Center
10:45PM 36.8378 -111.7856 66° East 495 570 37,000  Level Los Angeles Center
10:46PM 36.9058 -111.5978 66° East 498 573 37,000  Level Los Angeles Center
10:47PM 36.9611 -111.4392 66° East 499 574 37,000  Level Los Angeles Center
10:48PM 37.0178 -111.2803 66° East 502 578 37,000  Level Los Angeles Center
10:49PM 37.0736 -111.1203 66° East 503 579 37,000  Level Los Angeles Center
10:50PM 37.1414 -110.9253 66° East 511 588 37,000  Level Denver Center
10:51PM 37.1978 -110.7611 67° East 514 592 37,000  Level Denver Center
10:52PM 37.2539 -110.5978 67° East 512 589 37,000  Level Denver Center
10:53PM 37.3092 -110.4364 67° East 507 583 37,000  Level Denver Center
10:54PM 37.3656 -110.2733 66° East 510 587 37,000  Level Denver Center
10:56PM 37.4139 -110.1067 70° East 509 586 37,000  Level Denver Center
10:57PM 37.4661 -109.9189 71° East 509 586 37,000  Level Denver Center
10:58PM 37.5108 -109.7558 71° East 512 589 37,000  Level Denver Center
10:59PM 37.5633 -109.5625 71° East 520 598 37,000  Level Denver Center
11:00PM 37.6081 -109.3981 71° East 519 597 37,000  Level Denver Center
11:01PM 37.6531 -109.2325 71° East 520 598 37,000  Level Denver Center
11:02PM 37.7053 -109.0369 71° East 523 602 37,000  Level Denver Center
11:03PM 37.7497 -108.8692 71° East 525 604 37,000  Level Denver Center
11:04PM 37.7950 -108.6969 72° East 534 615 37,000  Level Denver Center
11:05PM 37.8461 -108.5022 72° East 527 606 37,000  Level Denver Center
11:06PM 37.8883 -108.3356 72° East 522 601 37,000  Level Denver Center
11:07PM 37.9375 -108.1372 72° East 525 604 37,000  Level Denver Center
11:08PM 37.9817 -107.9669 72° East 529 609 37,000  Level Denver Center
11:09PM 38.0267 -107.7956 72° East 534 615 37,000  Level Denver Center
11:10PM 38.0781 -107.5892 72° East 535 616 37,000  Level Denver Center
11:11PM 38.1208 -107.4192 72° East 530 610 37,000  Level Denver Center
11:12PM 38.1625 -107.2522 72° East 522 601 37,000  Level Denver Center
11:13PM 38.2053 -107.0772 73° East 522 601 37,000  Level Denver Center
11:14PM 38.2489 -106.9006 73° East 526 605 37,000 60 Level Denver Center
11:15PM 38.3008 -106.6883 73° East 526 605 37,200 1,020 Climbing Denver Center
11:16PM 38.3439 -106.5089 73° East 528 608 39,100 1,620 Climbing Denver Center
11:17PM 38.3847 -106.3356 73° East 517 595 40,600 780 Climbing Denver Center
11:18PM 38.4256 -106.1597 73° East 504 580 40,800 180 Climbing Denver Center
11:19PM 38.4669 -105.9906 73° East 517 595 41,000 60 Climbing Denver Center
11:20PM 38.5128 -105.7956 73° East 516 594 41,000  Level Denver Center
11:21PM 38.5528 -105.6208 74° East 514 592 41,000  Level Denver Center
11:22PM 38.5931 -105.4458 74° East 516 594 41,000  Level Denver Center
11:23PM 38.6333 -105.2744 73° East 509 586 41,000  Level Denver Center
11:24PM 38.6714 -105.1036 74° East 503 579 41,000  Level Denver Center
11:25PM 38.7103 -104.9328 74° East 504 580 41,000  Level Denver Center
11:26PM 38.7486 -104.7622 74° East 502 578 41,000  Level Denver Center
11:27PM 38.7864 -104.5900 74° East 505 581 41,000  Level Denver Center
11:28PM 38.8325 -104.3822 74° East 508 585 41,000  Level Denver Center
11:29PM 38.8700 -104.2106 74° East 505 581 41,000  Level Denver Center
11:30PM 38.9072 -104.0381 74° East 505 581 41,000  Level Denver Center
11:31PM 38.9444 -103.8656 74° East 505 581 41,000  Level Denver Center
11:32PM 38.9803 -103.6953 75° East 500 575 41,000  Level Denver Center
11:33PM 39.0164 -103.5233 75° East 500 575 41,000  Level Denver Center
11:34PM 39.0536 -103.3519 74° East 500 575 41,000  Level Denver Center
11:35PM 39.0886 -103.1783 75° East 503 579 41,000  Level Denver Center
11:36PM 39.1317 -102.9700 75° East 504 580 41,000  Level Denver Center
11:37PM 39.1681 -102.7975 75° East 501 577 41,000  Level Denver Center
11:38PM 39.2022 -102.6231 76° East 508 585 41,000  Level Denver Center
11:39PM 39.2367 -102.4547 75° East 508 585 41,000  Level Denver Center
11:40PM 39.2758 -102.2525 76° East 518 596 41,000  Level Denver Center
11:41PM 39.3108 -102.0808 75° East 518 596 41,000  Level Denver Center
11:43PM 39.3489 -101.8919 75° East 516 594 41,000  Level Denver Center
11:44PM 39.3822 -101.7172 76° East 523 602 41,000  Level Denver Center
11:45PM 39.4214 -101.5117 76° East 526 605 41,000  Level Denver Center
11:46PM 39.4544 -101.3367 76° East 527 606 41,000  Level Denver Center
11:47PM 39.4883 -101.1600 76° East 528 608 41,000  Level Denver Center
11:48PM 39.5261 -100.9550 77° East 527 606 41,000  Level Denver Center
11:49PM 39.5581 -100.7797 77° East 525 604 41,000  Level Denver Center
11:50PM 39.5967 -100.5769 76° East 522 601 41,000  Level Denver Center
11:51PM 39.6278 -100.4014 77° East 524 603 41,000  Level Denver Center
11:52PM 39.6592 -100.2283 77° East 520 598 41,000  Level Denver Center
11:53PM 39.6953 -100.0233 77° East 522 601 41,000  Level Denver Center
11:54PM 39.7258 -99.8525 77° East 520 598 41,000  Level Denver Center
11:55PM 39.7578 -99.6706 77° East 518 596 41,000  Level Denver Center
11:56PM 39.7889 -99.4883 77° East 518 596 41,000  Level Denver Center
11:57PM 39.8269 -99.2681 77° East 522 601 41,000  Level Denver Center
11:58PM 39.8572 -99.0883 78° East 514 592 41,000  Level Denver Center
11:59PM 39.8811 -98.9433 78° East 518 596 41,000  Level Minneapolis Center
12:00AM 39.9114 -98.7633 78° East 514 592 41,000  Level Minneapolis Center
12:01AM 39.9408 -98.5839 78° East 511 588 41,000  Level Minneapolis Center
12:02AM 39.9700 -98.4044 78° East 509 586 41,000  Level Minneapolis Center
12:03AM 39.9989 -98.2261 78° East 508 585 41,000  Level Minneapolis Center
12:04AM 40.0267 -98.0467 79° East 506 582 41,000  Level Minneapolis Center
12:05AM 40.0550 -97.8667 78° East 508 585 41,000  Level Minneapolis Center
12:06AM 40.0833 -97.6872 78° East 506 582 41,000  Level Minneapolis Center
12:07AM 40.1114 -97.5075 78° East 507 583 41,000  Level Minneapolis Center
12:08AM 40.1525 -97.3072 75° East 510 587 41,000  Level Minneapolis Center
12:09AM 40.1875 -97.1303 75° East 507 583 41,000  Level Minneapolis Center
12:10AM 40.2064 -96.9528 82° East 500 575 41,000  Level Minneapolis Center
12:11AM 40.2139 -96.7742 87° East 494 568 41,000  Level Minneapolis Center
12:12AM 40.2231 -96.5964 86° East 494 568 41,000  Level Minneapolis Center
12:13AM 40.2344 -96.4144 85° East 500 575 41,000  Level Minneapolis Center
12:14AM 40.2481 -96.2297 84° East 508 585 41,000  Level Minneapolis Center
12:15AM 40.2850 -96.0531 75° East 506 582 41,000  Level Minneapolis Center
12:16AM 40.3206 -95.8733 75° East 510 587 41,000  Level Minneapolis Center
12:17AM 40.3558 -95.6947 75° East 511 588 41,000  Level Minneapolis Center
12:18AM 40.3914 -95.5142 75° East 512 589 41,000  Level Minneapolis Center
12:19AM 40.4256 -95.3344 76° East 511 588 41,000  Level Minneapolis Center
12:20AM 40.4611 -95.1514 76° East 516 594 41,000  Level Minneapolis Center
12:21AM 40.4961 -94.9689 76° East 518 596 41,000  Level Minneapolis Center
12:22AM 40.5317 -94.7819 76° East 523 602 41,000  Level Minneapolis Center
12:23AM 40.5744 -94.5575 76° East 529 609 41,000  Level Minneapolis Center
12:24AM 40.6017 -94.4025 77° East 529 609 41,000  Level Minneapolis Center
12:25AM 40.6364 -94.2164 76° East 528 608 41,000  Level Minneapolis Center
12:26AM 40.6772 -93.9928 76° East 526 605 41,000  Level Minneapolis Center
12:27AM 40.7086 -93.8086 77° East 523 602 41,000  Level Minneapolis Center
12:28AM 40.7419 -93.6239 77° East 521 600 41,000  Level Minneapolis Center
12:29AM 40.7750 -93.4386 77° East 522 601 41,000  Level Minneapolis Center
12:30AM 40.8072 -93.2539 77° East 520 598 41,000  Level Minneapolis Center
12:31AM 40.8389 -93.0703 77° East 518 596 41,000  Level Minneapolis Center
12:32AM 40.8703 -92.8889 77° East 512 589 41,000  Level Minneapolis Center
12:33AM 40.9014 -92.7078 77° East 509 586 41,000  Level Minneapolis Center
12:34AM 40.9317 -92.5253 78° East 509 586 41,000  Level Minneapolis Center
12:35AM 40.9603 -92.3456 78° East 505 581 41,000  Level Minneapolis Center
12:36AM 40.9903 -92.1658 77° East 502 578 41,000  Level Minneapolis Center
12:37AM 41.0189 -91.9836 78° East 505 581 41,000  Level Minneapolis Center
12:38AM 41.0483 -91.8003 78° East 508 585 41,000  Level Minneapolis Center
12:39AM 41.0836 -91.5806 78° East 522 601 41,000  Level Chicago Center
12:40AM 41.1133 -91.3928 78° East 521 600 41,000  Level Chicago Center
12:41AM 41.1414 -91.2047 79° East 519 597 41,000  Level Chicago Center
12:42AM 41.1703 -91.0200 78° East 514 592 41,000  Level Chicago Center
12:43AM 41.1983 -90.8350 79° East 511 588 41,000  Level Chicago Center
12:44AM 41.2261 -90.6492 79° East 512 589 41,000 -540 Level Chicago Center
12:45AM 41.2536 -90.4625 79° East 514 592 40,000 -1,800 Descending Chicago Center
12:46AM 41.2803 -90.2750 79° East 513 590 37,400 -2,700 Descending Chicago Center
12:47AM 41.3075 -90.0908 79° East 508 585 34,600 -3,300 Descending Chicago Center
12:48AM 41.3319 -89.9114 80° East 494 568 30,800 -4,500 Descending Chicago Center
12:49AM 41.3575 -89.7261 80° East 503 579 25,600 -4,320 Descending Chicago Center
12:50AM 41.3853 -89.5433 78° East 503 579 22,200 -3,180 Descending Chicago Center
12:51AM 41.4089 -89.3725 80° East 475 547 19,200 -3,000 Descending Chicago Center
12:52AM 41.4314 -89.2100 79° East 451 519 16,200 -2,940 Descending Chicago Center
12:53AM 41.4514 -89.0467 81° East 425 489 13,300 -2,700 Descending Chicago Center
12:54AM 41.4703 -88.9039 80° East 399 459 10,800 -1,920 Descending Chicago Center
12:55AM 41.4875 -88.7764 80° East 358 412 9,500 -1,560 Descending Chicago Center
12:56AM 41.5025 -88.6597 80° East 323 372 7,700 -1,740 Descending Chicago Center
12:57AM 41.5169 -88.5461 80° East 315 362 6,000 -900 Descending Chicago Center
12:58AM 41.5333 -88.4317 79° East 316 364 6,000  Level Chicago Center
12:59AM 41.5508 -88.3178 78° East 314 361 6,000  Level Chicago Center
01:00AM 41.5686 -88.2042 78° East 313 360 6,000  Level Chicago Center
01:01AM 41.5872 -88.0894 78° East 313 360 6,000 -900 Level Chicago Center
01:02AM 41.6058 -87.9769 77° East 310 357 4,300 -1,200 Descending Chicago Center
01:03AM 41.6367 -87.8747 68° East 301 346 3,700 -660 Descending Chicago Center
01:04AM 41.6728 -87.7908 60° Northeast 278 320 3,000 -600 Descending Chicago Center
01:05AM 41.7261 -87.7333 39° Northeast 257 296 2,500 -540 Descending Chicago Center
01:06AM 41.7728 -87.6897 35° Northeast 227 261 2,000 -660 Descending Chicago Center
01:07AM 41.8069 -87.7150 331° Northwest 178 205 1,200 -480 Descending Chicago Center
01:08AM 41.8033 -87.7639 264° West 170 196 1,100 -120 Descending Chicago Center
01:10AM 41.7833 -87.7500 246° West  Level FlightAware Approximate